createdAt,value
2023-05-06T00:01:42.002Z,16.50
2023-05-06T00:04:09.185Z,16.20
2023-05-06T00:06:37.654Z,16.10
2023-05-06T00:09:04.879Z,14.60
2023-05-06T00:11:31.884Z,16.00
2023-05-06T00:13:59.063Z,15.80
2023-05-06T00:16:26.052Z,15.90
2023-05-06T00:18:53.003Z,16.10
2023-05-06T00:21:19.989Z,16.00
2023-05-06T00:23:47.098Z,16.00
2023-05-06T00:26:14.107Z,15.90
2023-05-06T00:28:41.157Z,16.10
2023-05-06T00:31:09.566Z,16.10
2023-05-06T00:33:36.645Z,16.30
2023-05-06T00:36:03.757Z,16.00
2023-05-06T00:38:30.860Z,15.90
2023-05-06T00:40:57.831Z,16.00
2023-05-06T00:43:25.465Z,15.70
2023-05-06T00:45:52.524Z,15.80
2023-05-06T00:48:19.690Z,15.80
2023-05-06T00:50:46.797Z,15.80
2023-05-06T00:53:13.831Z,15.10
2023-05-06T00:55:42.010Z,15.80
2023-05-06T00:58:09.372Z,17.00
2023-05-06T01:00:36.366Z,14.90
2023-05-06T01:03:03.545Z,15.90
2023-05-06T01:05:39.648Z,13.80
2023-05-06T01:08:18.951Z,15.80
2023-05-06T01:11:02.808Z,15.70
2023-05-06T01:14:07.348Z,16.20
2023-05-06T01:16:39.231Z,15.80
2023-05-06T01:19:09.403Z,15.80
2023-05-06T01:21:38.454Z,15.70
2023-05-06T01:24:05.959Z,15.50
2023-05-06T01:26:32.916Z,15.80
2023-05-06T01:29:02.039Z,15.70
2023-05-06T01:31:49.993Z,15.70
2023-05-06T01:34:38.725Z,15.80
2023-05-06T01:37:16.352Z,15.80
2023-05-06T01:39:44.938Z,15.70
2023-05-06T01:42:15.171Z,15.60
2023-05-06T01:44:45.462Z,15.60
2023-05-06T01:47:13.953Z,15.60
2023-05-06T01:49:41.150Z,15.70
2023-05-06T01:52:08.167Z,15.60
2023-05-06T01:54:35.131Z,15.70
2023-05-06T01:57:02.848Z,15.50
2023-05-06T01:59:30.296Z,15.60
2023-05-06T02:01:57.520Z,15.50
2023-05-06T02:04:24.548Z,15.50
2023-05-06T02:06:51.659Z,15.40
2023-05-06T02:09:19.810Z,15.60
2023-05-06T02:11:53.269Z,15.70
2023-05-06T02:14:20.364Z,16.70
2023-05-06T02:16:47.464Z,15.50
2023-05-06T02:19:14.863Z,15.50
2023-05-06T02:21:42.890Z,15.50
2023-05-06T02:24:10.161Z,15.60
2023-05-06T02:26:37.190Z,15.40
2023-05-06T02:29:04.548Z,15.80
2023-05-06T02:31:32.060Z,15.40
2023-05-06T02:33:59.062Z,16.70
2023-05-06T02:36:26.010Z,15.40
2023-05-06T02:38:54.870Z,15.30
2023-05-06T02:41:21.875Z,15.30
2023-05-06T02:43:48.886Z,15.40
2023-05-06T02:46:15.996Z,15.80
2023-05-06T02:48:43.135Z,15.40
2023-05-06T02:51:10.610Z,15.30
2023-05-06T02:53:37.675Z,15.40
2023-05-06T02:56:05.006Z,15.40
2023-05-06T02:58:31.975Z,15.20
2023-05-06T03:00:58.991Z,15.40
2023-05-06T03:03:26.127Z,14.70
2023-05-06T03:05:53.085Z,15.50
2023-05-06T03:08:20.189Z,15.30
2023-05-06T03:10:47.185Z,15.40
2023-05-06T03:13:17.180Z,15.00
2023-05-06T03:15:44.422Z,15.30
2023-05-06T03:18:11.766Z,15.60
2023-05-06T03:20:40.701Z,15.30
2023-05-06T03:23:07.685Z,15.20
2023-05-06T03:25:35.265Z,15.50
2023-05-06T03:28:02.334Z,15.10
2023-05-06T03:30:31.373Z,15.10
2023-05-06T03:33:02.356Z,15.40
2023-05-06T03:35:32.357Z,14.60
2023-05-06T03:38:00.745Z,15.20
2023-05-06T03:40:35.475Z,15.40
2023-05-06T03:43:02.579Z,15.60
2023-05-06T03:45:29.760Z,15.50
2023-05-06T03:47:59.977Z,15.20
2023-05-06T03:50:27.795Z,15.10
2023-05-06T03:52:55.003Z,15.60
2023-05-06T03:55:24.611Z,15.00
2023-05-06T03:57:51.806Z,15.10
2023-05-06T04:00:20.845Z,15.30
2023-05-06T04:02:52.297Z,15.00
2023-05-06T04:05:25.511Z,15.10
2023-05-06T04:07:53.067Z,15.20
2023-05-06T04:10:20.267Z,15.00
2023-05-06T04:12:50.167Z,15.00
2023-05-06T04:15:23.344Z,15.10
2023-05-06T04:17:50.665Z,15.00
2023-05-06T04:20:17.788Z,15.10
2023-05-06T04:22:44.762Z,15.00
2023-05-06T04:25:12.135Z,15.10
2023-05-06T04:27:39.424Z,16.60
2023-05-06T04:30:09.495Z,15.10
2023-05-06T04:32:38.576Z,15.00
2023-05-06T04:35:07.700Z,14.90
2023-05-06T04:37:34.970Z,15.00
2023-05-06T04:40:09.285Z,15.10
2023-05-06T04:42:38.875Z,14.90
2023-05-06T04:45:11.781Z,14.90
2023-05-06T04:47:41.160Z,14.90
2023-05-06T04:50:09.525Z,15.00
2023-05-06T04:52:37.463Z,14.90
2023-05-06T04:55:05.574Z,15.20
2023-05-06T05:00:03.607Z,14.90
2023-05-06T05:02:30.648Z,14.90
2023-05-06T05:04:57.899Z,14.90
2023-05-06T05:07:25.537Z,14.90
2023-05-06T05:09:52.546Z,14.80
2023-05-06T05:12:19.569Z,14.90
2023-05-06T05:14:49.540Z,14.10
2023-05-06T05:17:16.784Z,14.90
2023-05-06T05:19:44.851Z,15.00
2023-05-06T05:22:13.355Z,15.00
2023-05-06T05:24:40.307Z,14.80
2023-05-06T05:27:08.917Z,14.80
2023-05-06T05:29:36.910Z,14.90
2023-05-06T05:32:06.445Z,14.80
2023-05-06T05:34:33.435Z,14.90
2023-05-06T05:37:01.227Z,14.80
2023-05-06T05:39:29.006Z,14.90
2023-05-06T05:41:56.474Z,15.00
2023-05-06T05:44:23.863Z,14.80
2023-05-06T05:46:51.339Z,14.80
2023-05-06T05:49:20.333Z,14.70
2023-05-06T05:51:49.548Z,14.90
2023-05-06T05:54:18.318Z,14.80
2023-05-06T05:56:46.496Z,14.80
2023-05-06T05:59:14.148Z,14.90
2023-05-06T06:01:42.103Z,15.10
2023-05-06T06:04:09.999Z,14.90
2023-05-06T06:06:37.004Z,14.80
2023-05-06T06:09:04.315Z,14.80
2023-05-06T06:11:31.520Z,15.10
2023-05-06T06:13:59.126Z,14.90
2023-05-06T06:16:27.047Z,14.90
2023-05-06T06:21:21.973Z,14.80
2023-05-06T06:23:49.161Z,14.80
2023-05-06T06:26:16.255Z,14.80
2023-05-06T06:28:44.749Z,15.00
2023-05-06T06:31:12.093Z,14.50
2023-05-06T06:33:39.117Z,15.10
2023-05-06T06:36:06.617Z,15.00
2023-05-06T06:38:33.660Z,14.80
2023-05-06T06:41:00.628Z,15.00
2023-05-06T06:43:27.625Z,15.20
2023-05-06T06:46:02.112Z,15.00
2023-05-06T06:50:56.658Z,14.90
2023-05-06T06:53:23.957Z,15.10
2023-05-06T06:55:51.448Z,15.00
2023-05-06T06:58:18.632Z,14.90
2023-05-06T07:00:45.670Z,15.10
2023-05-06T07:03:15.823Z,14.80
2023-05-06T07:05:42.850Z,15.00
2023-05-06T07:08:09.829Z,14.90
2023-05-06T07:10:37.301Z,15.20
2023-05-06T07:15:31.652Z,15.10
2023-05-06T07:17:58.628Z,15.00
2023-05-06T07:20:25.728Z,14.80
2023-05-06T07:22:52.743Z,15.30
2023-05-06T07:25:19.835Z,15.20
2023-05-06T07:27:46.786Z,15.80
2023-05-06T07:30:14.086Z,15.10
2023-05-06T07:32:41.337Z,15.50
2023-05-06T07:35:09.379Z,15.40
2023-05-06T07:37:36.661Z,15.20
2023-05-06T07:40:04.110Z,15.30
2023-05-06T07:42:31.183Z,15.40
2023-05-06T07:44:58.226Z,15.00
2023-05-06T07:47:31.571Z,15.30
2023-05-06T07:50:00.068Z,15.30
2023-05-06T07:52:27.701Z,15.10
2023-05-06T07:54:54.751Z,15.40
2023-05-06T07:57:21.891Z,15.20
2023-05-06T08:02:18.786Z,14.80
2023-05-06T08:04:47.021Z,15.10
2023-05-06T08:07:15.800Z,15.20
2023-05-06T08:09:42.798Z,15.40
2023-05-06T08:12:10.055Z,15.40
2023-05-06T08:14:37.090Z,15.30
2023-05-06T08:17:04.214Z,15.30
2023-05-06T08:21:58.649Z,15.90
2023-05-06T08:24:25.709Z,15.40
2023-05-06T08:26:52.811Z,15.60
2023-05-06T08:29:19.890Z,15.50
2023-05-06T08:31:47.480Z,15.50
2023-05-06T08:34:14.563Z,15.50
2023-05-06T08:36:41.704Z,15.80
2023-05-06T08:39:08.686Z,15.70
2023-05-06T08:41:40.198Z,15.80
2023-05-06T08:44:08.606Z,15.70
2023-05-06T08:49:03.395Z,14.80
2023-05-06T08:51:31.824Z,15.60
2023-05-06T08:54:04.713Z,14.70
2023-05-06T08:56:33.787Z,16.10
2023-05-06T08:59:01.312Z,15.70
2023-05-06T09:01:29.169Z,15.70
2023-05-06T09:03:58.225Z,15.40
2023-05-06T09:06:25.419Z,15.60
2023-05-06T09:08:52.581Z,16.50
2023-05-06T09:11:31.836Z,15.90
2023-05-06T09:14:17.061Z,15.80
2023-05-06T09:16:50.790Z,14.70
2023-05-06T09:19:20.145Z,15.90
2023-05-06T09:21:50.108Z,16.20
2023-05-06T09:24:17.920Z,15.90
2023-05-06T09:26:46.503Z,15.80
2023-05-06T09:29:14.072Z,15.90
2023-05-06T09:31:51.175Z,16.10
2023-05-06T09:34:18.217Z,16.20
2023-05-06T09:36:45.401Z,16.20
2023-05-06T09:39:12.395Z,16.20
2023-05-06T09:41:39.461Z,16.20
2023-05-06T09:44:06.582Z,15.80
2023-05-06T09:46:33.674Z,16.30
2023-05-06T09:49:01.869Z,16.10
2023-05-06T09:51:31.201Z,15.60
2023-05-06T09:53:59.686Z,16.30
2023-05-06T09:56:27.064Z,15.50
2023-05-06T09:58:55.708Z,16.30
2023-05-06T10:01:35.305Z,16.40
2023-05-06T10:04:09.537Z,16.90
2023-05-06T10:09:09.199Z,16.30
2023-05-06T10:11:36.767Z,16.70
2023-05-06T10:14:05.414Z,16.60
2023-05-06T10:16:36.485Z,16.80
2023-05-06T10:19:04.994Z,16.50
2023-05-06T10:24:07.752Z,16.50
2023-05-06T10:26:38.153Z,16.70
2023-05-06T10:29:10.812Z,16.70
2023-05-06T10:31:49.416Z,17.10
2023-05-06T10:34:19.947Z,16.80
2023-05-06T10:36:52.110Z,16.80
2023-05-06T10:39:20.090Z,16.90
2023-05-06T10:41:48.119Z,16.80
2023-05-06T10:44:15.112Z,17.10
2023-05-06T10:46:59.740Z,17.90
2023-05-06T10:49:27.332Z,16.80
2023-05-06T10:52:17.411Z,16.90
2023-05-06T10:54:50.673Z,17.00
2023-05-06T10:57:18.479Z,16.90
2023-05-06T10:59:47.317Z,17.00
2023-05-06T11:02:15.096Z,17.10
2023-05-06T11:04:42.396Z,17.30
2023-05-06T11:07:16.473Z,16.90
2023-05-06T11:10:06.827Z,17.20
2023-05-06T11:12:55.231Z,17.20
2023-05-06T11:15:39.844Z,17.40
2023-05-06T11:18:25.521Z,17.80
2023-05-06T11:21:20.460Z,17.70
2023-05-06T11:23:49.731Z,17.70
2023-05-06T11:26:17.086Z,18.10
2023-05-06T11:28:47.129Z,18.60
2023-05-06T11:31:15.619Z,18.70
2023-05-06T11:33:47.726Z,18.90
2023-05-06T11:36:19.753Z,19.00
2023-05-06T11:38:52.898Z,18.50
2023-05-06T11:41:22.931Z,18.50
2023-05-06T11:43:52.288Z,19.20
2023-05-06T11:46:21.282Z,19.60
2023-05-06T11:48:48.995Z,21.40
2023-05-06T11:51:16.309Z,20.20
2023-05-06T11:53:43.282Z,20.00
2023-05-06T11:56:10.361Z,19.20
2023-05-06T11:58:37.301Z,19.90
2023-05-06T12:01:04.637Z,18.30
2023-05-06T12:03:33.548Z,19.40
2023-05-06T12:06:01.276Z,19.60
2023-05-06T12:08:34.999Z,20.10
2023-05-06T12:11:05.740Z,19.50
2023-05-06T12:13:34.935Z,20.30
2023-05-06T12:16:02.783Z,20.70
2023-05-06T12:18:30.711Z,19.90
2023-05-06T12:21:02.484Z,20.10
2023-05-06T12:23:29.699Z,20.30
2023-05-06T12:26:06.175Z,20.60
2023-05-06T12:28:36.232Z,20.40
2023-05-06T12:31:23.359Z,21.70
2023-05-06T12:33:50.770Z,22.00
2023-05-06T12:36:18.917Z,20.70
2023-05-06T12:38:56.443Z,21.70
2023-05-06T12:41:35.636Z,21.90
2023-05-06T12:44:02.952Z,22.20
2023-05-06T12:46:30.040Z,20.60
2023-05-06T12:49:02.214Z,21.80
2023-05-06T12:51:31.001Z,22.00
2023-05-06T12:53:58.203Z,21.40
2023-05-06T12:56:25.362Z,21.70
2023-05-06T12:59:00.901Z,21.20
2023-05-06T13:01:28.209Z,22.60
2023-05-06T13:03:57.506Z,22.80
2023-05-06T13:06:24.883Z,23.20
2023-05-06T13:08:51.907Z,22.80
2023-05-06T13:11:18.954Z,22.30
2023-05-06T13:13:45.978Z,21.80
2023-05-06T13:16:13.142Z,21.50
2023-05-06T13:18:40.187Z,21.60
2023-05-06T13:23:36.679Z,22.20
2023-05-06T13:26:06.189Z,22.60
2023-05-06T13:28:35.406Z,22.10
2023-05-06T13:31:02.521Z,22.10
2023-05-06T13:33:30.102Z,22.30
2023-05-06T13:38:24.585Z,22.30
2023-05-06T13:40:53.390Z,22.10
2023-05-06T13:43:21.949Z,22.70
2023-05-06T13:45:49.007Z,22.50
2023-05-06T13:48:16.148Z,22.20
2023-05-06T13:50:47.308Z,22.40
2023-05-06T13:53:15.356Z,22.80
2023-05-06T13:55:43.036Z,22.80
2023-05-06T13:58:11.250Z,23.10
2023-05-06T14:03:06.147Z,21.70
2023-05-06T14:05:33.493Z,21.80
2023-05-06T14:08:00.838Z,22.20
2023-05-06T14:10:28.151Z,22.50
2023-05-06T14:12:55.157Z,22.70
2023-05-06T14:15:22.125Z,22.40
2023-05-06T14:17:49.283Z,21.80
2023-05-06T14:20:16.328Z,22.90
2023-05-06T14:22:44.247Z,22.80
2023-05-06T14:25:11.822Z,22.50
2023-05-06T14:30:09.445Z,21.90
2023-05-06T14:32:37.563Z,22.00
2023-05-06T14:35:05.577Z,21.80
2023-05-06T14:37:32.596Z,21.60
2023-05-06T14:39:59.622Z,22.00
2023-05-06T14:42:26.772Z,20.70
2023-05-06T14:44:54.158Z,21.50
2023-05-06T14:47:21.365Z,20.30
2023-05-06T14:49:48.442Z,21.50
2023-05-06T14:52:15.509Z,22.30
2023-05-06T14:54:42.948Z,22.20
2023-05-06T14:57:11.477Z,22.30
2023-05-06T14:59:39.068Z,22.20
2023-05-06T15:02:09.304Z,22.00
2023-05-06T15:04:37.138Z,21.90
2023-05-06T15:07:04.376Z,21.70
2023-05-06T15:09:31.551Z,21.70
2023-05-06T15:12:01.783Z,21.40
2023-05-06T15:16:57.245Z,22.00
2023-05-06T15:19:27.908Z,22.00
2023-05-06T15:21:55.219Z,20.60
2023-05-06T15:24:23.121Z,21.50
2023-05-06T15:26:56.336Z,22.00
2023-05-06T15:29:24.783Z,21.90
2023-05-06T15:31:51.860Z,21.70
2023-05-06T15:34:20.922Z,21.20
2023-05-06T15:36:54.129Z,21.50
2023-05-06T15:39:22.132Z,21.60
2023-05-06T15:41:49.195Z,21.70
2023-05-06T15:44:16.545Z,21.80
2023-05-06T15:46:43.732Z,21.80
2023-05-06T15:51:47.531Z,21.90
2023-05-06T15:54:20.730Z,23.60
2023-05-06T15:56:52.607Z,21.90
2023-05-06T16:04:25.038Z,22.50
2023-05-06T16:06:52.216Z,22.90
2023-05-06T16:09:19.148Z,22.80
2023-05-06T16:11:46.296Z,22.50
2023-05-06T16:14:13.429Z,22.60
2023-05-06T16:16:40.767Z,22.60
2023-05-06T16:19:08.131Z,22.60
2023-05-06T16:21:35.108Z,22.70
2023-05-06T16:24:02.468Z,22.90
2023-05-06T16:28:57.858Z,22.00
2023-05-06T16:31:25.033Z,22.10
2023-05-06T16:33:52.108Z,23.00
2023-05-06T16:36:19.051Z,22.10
2023-05-06T16:38:46.576Z,21.90
2023-05-06T16:41:13.736Z,21.70
2023-05-06T16:43:41.045Z,22.70
2023-05-06T16:46:10.424Z,23.00
2023-05-06T16:48:37.862Z,21.80
2023-05-06T16:53:33.455Z,23.10
2023-05-06T16:56:15.111Z,21.90
2023-05-06T16:58:42.953Z,21.90
2023-05-06T17:01:11.193Z,23.00
2023-05-06T17:06:06.253Z,20.80
2023-05-06T17:08:36.290Z,21.30
2023-05-06T17:11:06.839Z,20.90
2023-05-06T17:13:34.761Z,21.20
2023-05-06T17:18:29.273Z,20.70
2023-05-06T17:20:57.350Z,23.10
2023-05-06T17:23:25.084Z,20.80
2023-05-06T17:25:52.150Z,20.90
2023-05-06T17:28:19.285Z,21.00
2023-05-06T17:30:46.917Z,20.90
2023-05-06T17:33:14.063Z,21.20
2023-05-06T17:35:41.029Z,20.40
2023-05-06T17:38:09.506Z,21.30
2023-05-06T17:40:36.453Z,21.20
2023-05-06T17:43:03.598Z,21.30
2023-05-06T17:45:30.844Z,21.30
2023-05-06T17:47:57.936Z,21.30
2023-05-06T17:52:54.439Z,21.50
2023-05-06T17:55:22.746Z,21.40
2023-05-06T17:57:50.293Z,21.40
2023-05-06T18:00:17.539Z,21.50
2023-05-06T18:02:45.367Z,21.40
2023-05-06T18:05:13.557Z,22.00
2023-05-06T18:07:40.974Z,21.60
2023-05-06T18:10:08.894Z,21.30
2023-05-06T18:12:35.992Z,22.40
2023-05-06T18:15:03.325Z,21.20
2023-05-06T18:17:30.645Z,21.30
2023-05-06T18:19:57.776Z,21.20
2023-05-06T18:22:24.952Z,21.00
2023-05-06T18:24:55.140Z,20.90
2023-05-06T18:27:22.822Z,20.90
2023-05-06T18:29:49.798Z,20.90
2023-05-06T18:32:17.683Z,20.90
2023-05-06T18:37:12.205Z,20.70
2023-05-06T18:39:43.184Z,20.70
2023-05-06T18:42:10.356Z,20.70
2023-05-06T18:44:37.858Z,20.50
2023-05-06T18:47:05.054Z,20.40
2023-05-06T18:49:32.134Z,20.50
2023-05-06T18:51:59.461Z,20.50
2023-05-06T18:54:26.515Z,20.40
2023-05-06T18:56:54.724Z,20.30
2023-05-06T18:59:21.918Z,20.30
2023-05-06T19:04:16.293Z,20.40
2023-05-06T19:06:43.614Z,20.30
2023-05-06T19:09:11.395Z,20.30
2023-05-06T19:11:38.854Z,20.20
2023-05-06T19:14:06.001Z,20.20
2023-05-06T19:16:33.051Z,20.20
2023-05-06T19:19:02.522Z,20.10
2023-05-06T19:21:29.646Z,20.10
2023-05-06T19:24:00.922Z,20.00
2023-05-06T19:26:28.685Z,20.00
2023-05-06T19:31:23.426Z,20.00
2023-05-06T19:33:50.678Z,19.90
2023-05-06T19:36:17.676Z,19.90
2023-05-06T19:38:44.708Z,20.40
2023-05-06T19:41:11.737Z,20.00
2023-05-06T19:43:43.575Z,19.90
2023-05-06T19:46:14.294Z,19.80
2023-05-06T19:48:41.295Z,19.80
2023-05-06T19:51:08.566Z,19.70
2023-05-06T19:53:36.339Z,19.60
2023-05-06T19:56:14.385Z,19.80
2023-05-06T19:58:41.490Z,19.70
2023-05-06T20:01:09.048Z,19.80
2023-05-06T20:03:36.365Z,19.80
2023-05-06T20:06:04.055Z,20.00
2023-05-06T20:08:31.218Z,19.70
2023-05-06T20:10:58.384Z,19.70
2023-05-06T20:13:25.925Z,19.60
2023-05-06T20:15:54.940Z,19.60
2023-05-06T20:18:22.747Z,19.60
2023-05-06T20:20:49.723Z,19.50
2023-05-06T20:25:44.477Z,19.10
2023-05-06T20:28:11.675Z,19.40
2023-05-06T20:30:38.979Z,19.40
2023-05-06T20:35:38.238Z,19.40
2023-05-06T20:38:06.532Z,18.70
2023-05-06T20:40:35.765Z,19.40
2023-05-06T20:43:02.943Z,19.40
2023-05-06T20:45:31.385Z,19.40
2023-05-06T20:47:58.664Z,19.20
2023-05-06T20:50:26.180Z,19.30
2023-05-06T20:52:54.319Z,19.20
2023-05-06T20:57:50.794Z,18.80
2023-05-06T21:00:18.903Z,19.20
2023-05-06T21:02:45.987Z,19.20
2023-05-06T21:05:13.507Z,19.20
2023-05-06T21:07:40.864Z,19.30
2023-05-06T21:10:09.922Z,19.10
2023-05-06T21:15:05.183Z,19.10
2023-05-06T21:17:32.364Z,19.50
2023-05-06T21:19:59.417Z,18.90
2023-05-06T21:22:26.752Z,19.00
2023-05-06T21:24:53.839Z,19.10
2023-05-06T21:27:20.900Z,18.90
2023-05-06T21:32:15.437Z,18.80
2023-05-06T21:34:42.525Z,18.70
2023-05-06T21:37:09.584Z,18.80
2023-05-06T21:39:36.865Z,18.80
2023-05-06T21:42:03.842Z,18.80
2023-05-06T21:44:30.991Z,18.70
2023-05-06T21:49:25.568Z,18.60
2023-05-06T21:54:20.038Z,18.60
2023-05-06T21:56:47.019Z,18.80
2023-05-06T21:59:13.988Z,18.60
2023-05-06T22:01:41.016Z,19.20
2023-05-06T22:06:40.179Z,18.60
2023-05-06T22:09:09.468Z,18.90
2023-05-06T22:11:38.211Z,18.60
2023-05-06T22:14:06.776Z,18.60
2023-05-06T22:16:35.478Z,18.30
2023-05-06T22:19:03.881Z,18.40
2023-05-06T22:21:31.946Z,18.50
2023-05-06T22:23:59.321Z,18.40
2023-05-06T22:26:28.269Z,18.30
2023-05-06T22:28:58.548Z,18.40
2023-05-06T22:31:25.887Z,18.40
2023-05-06T22:33:57.618Z,18.30
2023-05-06T22:36:29.087Z,18.20
2023-05-06T22:38:56.483Z,18.20
2023-05-06T22:43:50.926Z,18.20
2023-05-06T22:46:18.362Z,18.20
2023-05-06T22:48:46.264Z,18.20
2023-05-06T22:51:18.580Z,18.20
2023-05-06T22:53:45.619Z,17.90
2023-05-06T22:56:12.828Z,18.00
2023-05-06T22:58:39.946Z,18.10
2023-05-06T23:01:07.542Z,18.10
2023-05-06T23:03:35.490Z,18.10
2023-05-06T23:06:03.902Z,18.10
2023-05-06T23:08:31.071Z,18.00
2023-05-06T23:10:58.025Z,18.00
2023-05-06T23:15:53.677Z,18.10
2023-05-06T23:20:48.068Z,18.20
2023-05-06T23:23:15.050Z,17.80
2023-05-06T23:25:41.997Z,18.00
2023-05-06T23:28:08.982Z,17.70
2023-05-06T23:30:35.974Z,17.70
2023-05-06T23:33:03.726Z,17.80
2023-05-06T23:37:58.837Z,16.80
2023-05-06T23:40:25.881Z,17.70
2023-05-06T23:42:53.148Z,17.70
2023-05-06T23:45:20.360Z,17.60
2023-05-06T23:47:47.352Z,17.60
2023-05-06T23:50:14.835Z,17.70
2023-05-06T23:52:41.925Z,17.70
2023-05-06T23:55:09.800Z,17.60
2023-05-06T23:57:37.177Z,17.50
